Terminal Aerodrome Forecast
Issued by NWS Shreveport, LA

Home | Current Version | Previous Version | Text Only | Print | Product List | Glossary On
Versions: 1 2 3 4 5 6 7 8 9 10 11 12 13 14
000
FTUS44 KSHV 252322
TAFTXK
TAF
KTXK 252322Z 2600/2624 31010KT P6SM VCSH SCT020 OVC050
      TEMPO 2600/2603 5SM -SHRA BR OVC015
     FM260400 30008KT P6SM OVC015
     FM261500 31008KT P6SM OVC030
     FM261800 32007KT P6SM BKN040=

USA.gov is the U.S. government's official web portal to all federal, state and local government web resources and services.